Flight Track Log - Related Links

Times and Time Zones

All times are in EDT time to prevent confusion due to time zone crossing. See the UCA3599 flight status page for this flight to view local times or setup timezone preferences in your user account.


Time Position Orientation Groundspeed Altitude Reporting Facility
EDT Latitude Longitude Course Direction KTS MPH feet Rate Location/Type
Tue 06:09:26 AM 42.1369 -75.9558 217° Southwest 171 197 3,900  Level New York Center
Tue 06:10:26 AM 42.1044 -75.9894 218° Southwest 157 181 5,300 1,339 Climbing New York Center
Tue 06:11:27 AM 42.0692 -76.0286 219° Southwest 162 186 6,600 1,500 Climbing New York Center
Tue 06:12:26 AM 42.0278 -76.0700 217° Southwest 167 192 8,300 1,513 Climbing New York Center
Tue 06:13:26 AM 41.9931 -76.1061 218° Southwest 174 200 9,600 1,350 Climbing New York Center
Tue 06:14:26 AM 41.9494 -76.1500 217° Southwest 180 207 11,000 1,200 Climbing New York Center
Tue 06:15:26 AM 41.9081 -76.1914 217° Southwest 186 214 12,000 950 Climbing New York Center
Tue 06:16:26 AM 41.8600 -76.2403 217° Southwest 200 230 12,900 950 Climbing New York Center
Tue 06:17:26 AM 41.8183 -76.2842 218° Southwest 218 251 13,900 1,100 Climbing New York Center
Tue 06:18:26 AM 41.7700 -76.3358 219° Southwest 218 251 15,100 1,050 Climbing New York Center
Tue 06:19:26 AM 41.7175 -76.3925 219° Southwest 218 251 16,000 450 Climbing New York Center
Tue 06:20:26 AM 41.6628 -76.4464 216° Southwest 232 267 16,000  Level New York Center
Tue 06:21:26 AM 41.6036 -76.5050 217° Southwest 259 298 16,000  Level New York Center
Tue 06:22:26 AM 41.5511 -76.5589 218° Southwest 264 304 16,000  Level New York Center
Tue 06:23:26 AM 41.4853 -76.6253 217° Southwest 269 310 16,000  Level New York Center
Tue 06:24:26 AM 41.4186 -76.6692 206° Southwest 269 310 16,000  Level New York Center
Tue 06:25:26 AM 41.3419 -76.7011 197° South 275 316 16,000  Level New York Center
Tue 06:26:26 AM 41.2681 -76.7222 192° South 285 328 16,000  Level New York Center
Tue 06:27:26 AM 41.1897 -76.7458 193° South 285 328 16,000  Level New York Center
Tue 06:28:26 AM 41.1156 -76.7722 195° South 285 328 16,000  Level New York Center
Tue 06:29:26 AM 41.0414 -76.7958 194° South 285 328 16,000  Level New York Center
Tue 06:30:26 AM 40.9653 -76.8194 193° South 285 328 16,000  Level New York Center
Tue 06:31:26 AM 40.8911 -76.8431 194° South 279 321 16,000  Level New York Center
Tue 06:32:26 AM 40.8231 -76.8672 195° South 284 327 16,000  Level New York Center
Tue 06:33:26 AM 40.7383 -76.8925 193° South 284 327 16,000  Level New York Center
Tue 06:34:26 AM 40.6706 -76.9139 193° South 284 327 16,000  Level New York Center
Tue 06:35:26 AM 40.5858 -76.9419 194° South 284 327 16,000  Level New York Center
Tue 06:36:26 AM 40.5158 -76.9628 193° South 284 327 16,000  Level New York Center
Tue 06:37:26 AM 40.4353 -76.9911 195° South 284 327 16,000  Level New York Center
Tue 06:38:26 AM 40.3653 -77.0119 193° South 284 327 16,000 -300 Level New York Center
Tue 06:39:26 AM 40.2806 -77.0397 194° South 284 327 15,400 -784 Descending New York Center
Tue 06:41:22 AM 40.1167 -77.0833 192° South 312 359 13,700 -989 Descending Potomac TRACON
Tue 06:42:22 AM 40.0333 -77.1167 197° South 296 341 12,500 -1,190 Descending Potomac TRACON
Tue 06:43:23 AM 39.9667 -77.1167 180° South 274 315 11,300 -1,200 Descending Potomac TRACON
Tue 06:44:17 AM 39.9000 -77.1000 169° South 271 312 10,200 -1,222 Descending Potomac TRACON
Tue 06:45:11 AM 39.8333 -77.0833 169° South 279 321 9,100 -1,211 Descending Potomac TRACON
Tue 06:46:11 AM 39.7500 -77.0833 180° South 269 310 7,900 -1,041 Descending Potomac TRACON
Tue 06:47:12 AM 39.7167 -77.1500 237° Southwest 254 292 7,000 -446 Descending Potomac TRACON
Tue 06:48:12 AM 39.6833 -77.2333 243° Southwest 245 282 7,000  Level Potomac TRACON
Tue 06:49:06 AM 39.6333 -77.2833 218° Southwest 245 282 7,000 -167 Level Potomac TRACON
Tue 06:50:00 AM 39.5833 -77.3167 207° Southwest 251 289 6,700 -522 Descending Potomac TRACON
Tue 06:51:01 AM 39.5167 -77.3500 201° Southwest 263 303 6,000 -694 Descending Potomac TRACON
Tue 06:52:01 AM 39.4500 -77.4000 210° Southwest 263 303 5,300 -694 Descending Potomac TRACON
Tue 06:53:02 AM 39.3667 -77.4167 189° South 265 305 4,600 -730 Descending Potomac TRACON
Tue 06:53:56 AM 39.3000 -77.4333 191° South 261 300 3,900 -737 Descending Potomac TRACON
Tue 06:54:56 AM 39.2333 -77.4333 180° South 262 302 3,200 -450 Descending Potomac TRACON
Tue 06:55:56 AM 39.1667 -77.4333 180° South 231 266 3,000 -100 Descending Potomac TRACON
Tue 06:56:56 AM 39.1167 -77.4333 180° South 197 227 3,000 -421 Level Potomac TRACON
Tue 06:57:50 AM 39.0667 -77.4333 180° South 190 219 2,200 -842 Descending Potomac TRACON
Tue 06:58:50 AM 39.0167 -77.4333 180° South 156 180 1,400 -737 Descending Potomac TRACON
Tue 06:59:44 AM 38.9833 -77.4333 180° South 123 142 800 -667 Descending Potomac TRACON
Tue 07:01:00 AM 38.9474 -77.4599 180° South  Level Estimated

Login

Don't have an account? Register now (free) for customized features, flight alerts, and more!